Small, Idaho
Current Conditions -  °F | °C
As of 1:53 PM on Monday 22 Dec 2014 (Local Time) from KRXE Reporting Station
Overcast Overcast  
Wind Chill: 30°   Ceiling: 7000
Heat Index: 38°   Visibility: 10mi
Dew Point: 21°   Wind: 13mph
Humidity: 51%   Direction: 320°NW
Pressure: 29.96"   Gusts: 22mph
Location:  44.2396°N, 112.579°W
Report Text: KRXE 222053Z AUTO 32011G19KT 10SM SCT046 BKN070 OVC110 03/M06 A2996 RMK AO2 SLP160 T00331061 55001
Loading
Personal Weather Stations






























Interactive Weather Map New forecast layout! Learn more

10-Day Weather Forecast

Advertisements
Track Severe Weather on mobile